sensor_id;sensor_type;location;lat;lon;timestamp;temperature;humidity
17740;DHT22;8990;33.226;-97.150;2024-01-16T00:00:05;-3.30;94.10
17740;DHT22;8990;33.226;-97.150;2024-01-16T00:02:35;-3.30;94.10
17740;DHT22;8990;33.226;-97.150;2024-01-16T00:05:05;-3.30;94.40
17740;DHT22;8990;33.226;-97.150;2024-01-16T00:07:34;-3.40;94.00
17740;DHT22;8990;33.226;-97.150;2024-01-16T00:10:07;-3.40;94.00
17740;DHT22;8990;33.226;-97.150;2024-01-16T00:12:37;-3.50;93.90
17740;DHT22;8990;33.226;-97.150;2024-01-16T00:15:08;-3.50;93.90
17740;DHT22;8990;33.226;-97.150;2024-01-16T00:17:37;-3.60;94.40
17740;DHT22;8990;33.226;-97.150;2024-01-16T00:20:07;-3.60;94.60
17740;DHT22;8990;33.226;-97.150;2024-01-16T00:22:36;-3.70;95.10
17740;DHT22;8990;33.226;-97.150;2024-01-16T00:25:06;-3.70;95.20
17740;DHT22;8990;33.226;-97.150;2024-01-16T00:27:37;-3.70;95.00
17740;DHT22;8990;33.226;-97.150;2024-01-16T00:30:07;-3.80;94.80
17740;DHT22;8990;33.226;-97.150;2024-01-16T00:32:36;-3.80;94.70
17740;DHT22;8990;33.226;-97.150;2024-01-16T00:35:05;-3.80;94.80
17740;DHT22;8990;33.226;-97.150;2024-01-16T00:37:35;-3.90;95.00
17740;DHT22;8990;33.226;-97.150;2024-01-16T00:40:05;-4.00;95.20
17740;DHT22;8990;33.226;-97.150;2024-01-16T00:42:37;-4.00;95.20
17740;DHT22;8990;33.226;-97.150;2024-01-16T00:45:06;-4.00;95.20
17740;DHT22;8990;33.226;-97.150;2024-01-16T00:47:35;-4.10;95.40
17740;DHT22;8990;33.226;-97.150;2024-01-16T00:50:05;-4.10;95.60
17740;DHT22;8990;33.226;-97.150;2024-01-16T00:52:36;-4.10;95.60
17740;DHT22;8990;33.226;-97.150;2024-01-16T00:55:05;-4.20;95.50
17740;DHT22;8990;33.226;-97.150;2024-01-16T00:57:34;-4.20;95.70
17740;DHT22;8990;33.226;-97.150;2024-01-16T01:00:06;-4.30;95.80
17740;DHT22;8990;33.226;-97.150;2024-01-16T01:02:36;-4.30;95.80
17740;DHT22;8990;33.226;-97.150;2024-01-16T01:05:07;-4.40;95.90
17740;DHT22;8990;33.226;-97.150;2024-01-16T01:07:37;-4.40;96.20
17740;DHT22;8990;33.226;-97.150;2024-01-16T01:10:06;-4.50;96.20
17740;DHT22;8990;33.226;-97.150;2024-01-16T01:12:35;-4.60;96.40
17740;DHT22;8990;33.226;-97.150;2024-01-16T01:15:06;-4.70;96.80
17740;DHT22;8990;33.226;-97.150;2024-01-16T01:17:35;-4.80;97.00
17740;DHT22;8990;33.226;-97.150;2024-01-16T01:20:05;-4.70;96.80
17740;DHT22;8990;33.226;-97.150;2024-01-16T01:22:35;-4.80;96.80
17740;DHT22;8990;33.226;-97.150;2024-01-16T01:25:05;-4.80;97.00
17740;DHT22;8990;33.226;-97.150;2024-01-16T01:27:34;-4.90;97.20
17740;DHT22;8990;33.226;-97.150;2024-01-16T01:30:06;-4.90;97.40
17740;DHT22;8990;33.226;-97.150;2024-01-16T01:32:35;-5.00;97.60
17740;DHT22;8990;33.226;-97.150;2024-01-16T01:35:05;-5.00;97.80
17740;DHT22;8990;33.226;-97.150;2024-01-16T01:37:34;-5.00;97.90
17740;DHT22;8990;33.226;-97.150;2024-01-16T01:40:04;-5.00;98.10
17740;DHT22;8990;33.226;-97.150;2024-01-16T01:42:33;-5.10;98.40
17740;DHT22;8990;33.226;-97.150;2024-01-16T01:45:02;-5.10;98.70
17740;DHT22;8990;33.226;-97.150;2024-01-16T01:47:33;-5.10;98.90
17740;DHT22;8990;33.226;-97.150;2024-01-16T01:50:02;-5.20;98.90
17740;DHT22;8990;33.226;-97.150;2024-01-16T01:52:32;-5.20;99.20
17740;DHT22;8990;33.226;-97.150;2024-01-16T01:55:02;-5.20;99.20
17740;DHT22;8990;33.226;-97.150;2024-01-16T01:57:33;-5.20;99.20
17740;DHT22;8990;33.226;-97.150;2024-01-16T02:00:03;-5.20;99.20
17740;DHT22;8990;33.226;-97.150;2024-01-16T02:02:42;-5.20;99.50
17740;DHT22;8990;33.226;-97.150;2024-01-16T02:05:11;-5.20;99.70
17740;DHT22;8990;33.226;-97.150;2024-01-16T02:07:40;-5.30;99.80
17740;DHT22;8990;33.226;-97.150;2024-01-16T02:10:10;-5.30;99.90
17740;DHT22;8990;33.226;-97.150;2024-01-16T02:12:39;-5.40;99.90
17740;DHT22;8990;33.226;-97.150;2024-01-16T02:15:08;-5.30;99.90
17740;DHT22;8990;33.226;-97.150;2024-01-16T02:17:37;-5.40;99.90
17740;DHT22;8990;33.226;-97.150;2024-01-16T02:20:09;-5.40;99.90
17740;DHT22;8990;33.226;-97.150;2024-01-16T02:22:39;-5.40;99.90
17740;DHT22;8990;33.226;-97.150;2024-01-16T02:25:10;-5.40;99.90
17740;DHT22;8990;33.226;-97.150;2024-01-16T02:27:39;-5.40;99.90
17740;DHT22;8990;33.226;-97.150;2024-01-16T02:30:08;-5.50;99.90
17740;DHT22;8990;33.226;-97.150;2024-01-16T02:32:38;-5.50;99.90
17740;DHT22;8990;33.226;-97.150;2024-01-16T02:35:07;-5.60;99.90
17740;DHT22;8990;33.226;-97.150;2024-01-16T02:37:37;-5.70;99.90
17740;DHT22;8990;33.226;-97.150;2024-01-16T02:40:06;-5.70;99.90
17740;DHT22;8990;33.226;-97.150;2024-01-16T02:42:38;-5.80;99.90
17740;DHT22;8990;33.226;-97.150;2024-01-16T02:45:07;-5.90;99.90
17740;DHT22;8990;33.226;-97.150;2024-01-16T02:47:36;-5.90;99.90
17740;DHT22;8990;33.226;-97.150;2024-01-16T02:50:06;-6.00;99.90
17740;DHT22;8990;33.226;-97.150;2024-01-16T02:52:36;-6.00;99.90
17740;DHT22;8990;33.226;-97.150;2024-01-16T02:55:06;-6.00;99.90
17740;DHT22;8990;33.226;-97.150;2024-01-16T02:57:37;-6.00;99.90
17740;DHT22;8990;33.226;-97.150;2024-01-16T03:00:07;-6.00;99.90
17740;DHT22;8990;33.226;-97.150;2024-01-16T03:02:36;-6.10;99.90
17740;DHT22;8990;33.226;-97.150;2024-01-16T03:05:05;-6.00;99.90
17740;DHT22;8990;33.226;-97.150;2024-01-16T03:07:35;-6.00;99.90
17740;DHT22;8990;33.226;-97.150;2024-01-16T03:10:04;-6.00;99.90
17740;DHT22;8990;33.226;-97.150;2024-01-16T03:12:33;-6.00;99.90
17740;DHT22;8990;33.226;-97.150;2024-01-16T03:15:04;-6.10;99.90
17740;DHT22;8990;33.226;-97.150;2024-01-16T03:17:33;-6.00;99.90
17740;DHT22;8990;33.226;-97.150;2024-01-16T03:20:02;-6.00;99.90
17740;DHT22;8990;33.226;-97.150;2024-01-16T03:22:31;-6.00;99.90
17740;DHT22;8990;33.226;-97.150;2024-01-16T03:25:00;-6.00;99.90
17740;DHT22;8990;33.226;-97.150;2024-01-16T03:27:29;-6.10;99.90
17740;DHT22;8990;33.226;-97.150;2024-01-16T03:29:58;-6.10;99.90
17740;DHT22;8990;33.226;-97.150;2024-01-16T03:32:29;-6.00;99.90
17740;DHT22;8990;33.226;-97.150;2024-01-16T03:34:58;-6.00;99.90
17740;DHT22;8990;33.226;-97.150;2024-01-16T03:37:26;-6.00;99.90
17740;DHT22;8990;33.226;-97.150;2024-01-16T03:39:55;-6.00;99.90
17740;DHT22;8990;33.226;-97.150;2024-01-16T03:42:25;-6.00;99.90
17740;DHT22;8990;33.226;-97.150;2024-01-16T03:44:54;-6.00;99.90
17740;DHT22;8990;33.226;-97.150;2024-01-16T03:47:23;-6.10;99.90
17740;DHT22;8990;33.226;-97.150;2024-01-16T03:49:54;-6.20;99.90
17740;DHT22;8990;33.226;-97.150;2024-01-16T03:52:23;-6.20;99.90
17740;DHT22;8990;33.226;-97.150;2024-01-16T03:54:52;-6.20;99.90
17740;DHT22;8990;33.226;-97.150;2024-01-16T03:57:21;-6.20;99.90
17740;DHT22;8990;33.226;-97.150;2024-01-16T03:59:51;-6.20;99.90
17740;DHT22;8990;33.226;-97.150;2024-01-16T04:02:20;-6.30;99.90
17740;DHT22;8990;33.226;-97.150;2024-01-16T04:04:49;-6.20;99.90
17740;DHT22;8990;33.226;-97.150;2024-01-16T04:07:22;-6.20;99.90
17740;DHT22;8990;33.226;-97.150;2024-01-16T04:09:51;-6.30;99.90
17740;DHT22;8990;33.226;-97.150;2024-01-16T04:12:20;-6.30;99.90
17740;DHT22;8990;33.226;-97.150;2024-01-16T04:14:50;-6.30;99.90
17740;DHT22;8990;33.226;-97.150;2024-01-16T04:17:19;-6.30;99.90
17740;DHT22;8990;33.226;-97.150;2024-01-16T04:19:48;-6.30;99.90
17740;DHT22;8990;33.226;-97.150;2024-01-16T04:22:16;-6.30;99.90
17740;DHT22;8990;33.226;-97.150;2024-01-16T04:24:47;-6.30;99.90
17740;DHT22;8990;33.226;-97.150;2024-01-16T04:27:16;-6.30;99.90
17740;DHT22;8990;33.226;-97.150;2024-01-16T04:29:45;-6.30;99.90
17740;DHT22;8990;33.226;-97.150;2024-01-16T04:32:14;-6.40;99.90
17740;DHT22;8990;33.226;-97.150;2024-01-16T04:34:43;-6.30;99.90
17740;DHT22;8990;33.226;-97.150;2024-01-16T04:37:12;-6.40;99.90
17740;DHT22;8990;33.226;-97.150;2024-01-16T04:39:41;-6.40;99.90
17740;DHT22;8990;33.226;-97.150;2024-01-16T04:42:11;-6.40;99.90
17740;DHT22;8990;33.226;-97.150;2024-01-16T04:44:40;-6.50;99.90
17740;DHT22;8990;33.226;-97.150;2024-01-16T04:47:09;-6.50;99.90
17740;DHT22;8990;33.226;-97.150;2024-01-16T04:49:41;-6.50;99.90
17740;DHT22;8990;33.226;-97.150;2024-01-16T04:52:11;-6.60;99.90
17740;DHT22;8990;33.226;-97.150;2024-01-16T04:54:40;-6.60;99.90
17740;DHT22;8990;33.226;-97.150;2024-01-16T04:57:11;-6.60;99.90
17740;DHT22;8990;33.226;-97.150;2024-01-16T04:59:40;-6.60;99.90
17740;DHT22;8990;33.226;-97.150;2024-01-16T05:02:10;-6.60;99.90
17740;DHT22;8990;33.226;-97.150;2024-01-16T05:04:39;-6.60;99.90
17740;DHT22;8990;33.226;-97.150;2024-01-16T05:07:08;-6.60;99.90
17740;DHT22;8990;33.226;-97.150;2024-01-16T05:09:37;-6.60;99.90
17740;DHT22;8990;33.226;-97.150;2024-01-16T05:12:06;-6.60;99.90
17740;DHT22;8990;33.226;-97.150;2024-01-16T05:14:37;-6.60;99.90
17740;DHT22;8990;33.226;-97.150;2024-01-16T05:17:06;-6.60;99.90
17740;DHT22;8990;33.226;-97.150;2024-01-16T05:19:35;-6.60;99.90
17740;DHT22;8990;33.226;-97.150;2024-01-16T05:22:04;-6.60;99.90
17740;DHT22;8990;33.226;-97.150;2024-01-16T05:24:33;-6.60;99.90
17740;DHT22;8990;33.226;-97.150;2024-01-16T05:27:02;-6.50;99.90
17740;DHT22;8990;33.226;-97.150;2024-01-16T05:29:31;-6.60;99.90
17740;DHT22;8990;33.226;-97.150;2024-01-16T05:32:02;-6.50;99.90
17740;DHT22;8990;33.226;-97.150;2024-01-16T05:34:31;-6.50;99.90
17740;DHT22;8990;33.226;-97.150;2024-01-16T05:36:59;-6.50;99.90
17740;DHT22;8990;33.226;-97.150;2024-01-16T05:39:28;-6.50;99.90
17740;DHT22;8990;33.226;-97.150;2024-01-16T05:41:58;-6.50;99.90
17740;DHT22;8990;33.226;-97.150;2024-01-16T05:44:27;-6.50;99.90
17740;DHT22;8990;33.226;-97.150;2024-01-16T05:46:56;-6.40;99.90
17740;DHT22;8990;33.226;-97.150;2024-01-16T05:49:27;-6.40;99.90
17740;DHT22;8990;33.226;-97.150;2024-01-16T05:51:56;-6.50;99.90
17740;DHT22;8990;33.226;-97.150;2024-01-16T05:54:25;-6.50;99.90
17740;DHT22;8990;33.226;-97.150;2024-01-16T05:56:54;-6.60;99.90
17740;DHT22;8990;33.226;-97.150;2024-01-16T05:59:23;-6.60;99.90
17740;DHT22;8990;33.226;-97.150;2024-01-16T06:01:52;-6.70;99.90
17740;DHT22;8990;33.226;-97.150;2024-01-16T06:04:21;-6.70;99.90
17740;DHT22;8990;33.226;-97.150;2024-01-16T06:06:52;-6.80;99.90
17740;DHT22;8990;33.226;-97.150;2024-01-16T06:09:21;-6.90;99.90
17740;DHT22;8990;33.226;-97.150;2024-01-16T06:11:50;-6.90;99.90
17740;DHT22;8990;33.226;-97.150;2024-01-16T06:14:19;-7.00;99.90
17740;DHT22;8990;33.226;-97.150;2024-01-16T06:16:48;-7.00;99.90
17740;DHT22;8990;33.226;-97.150;2024-01-16T06:19:17;-7.10;99.90
17740;DHT22;8990;33.226;-97.150;2024-01-16T06:21:46;-7.10;99.90
17740;DHT22;8990;33.226;-97.150;2024-01-16T06:24:17;-7.10;99.90
17740;DHT22;8990;33.226;-97.150;2024-01-16T06:26:46;-7.10;99.90
17740;DHT22;8990;33.226;-97.150;2024-01-16T06:29:15;-7.10;99.90
17740;DHT22;8990;33.226;-97.150;2024-01-16T06:31:44;-7.10;99.90
17740;DHT22;8990;33.226;-97.150;2024-01-16T06:34:13;-7.10;99.90
17740;DHT22;8990;33.226;-97.150;2024-01-16T06:36:42;-7.10;99.90
17740;DHT22;8990;33.226;-97.150;2024-01-16T06:39:11;-7.10;99.90
17740;DHT22;8990;33.226;-97.150;2024-01-16T06:41:42;-7.20;99.90
17740;DHT22;8990;33.226;-97.150;2024-01-16T06:44:11;-7.20;99.90
17740;DHT22;8990;33.226;-97.150;2024-01-16T06:46:40;-7.20;99.90
17740;DHT22;8990;33.226;-97.150;2024-01-16T06:49:09;-7.20;99.90
17740;DHT22;8990;33.226;-97.150;2024-01-16T06:51:38;-7.20;99.90
17740;DHT22;8990;33.226;-97.150;2024-01-16T06:54:07;-7.20;99.90
17740;DHT22;8990;33.226;-97.150;2024-01-16T06:56:36;-7.20;99.90
17740;DHT22;8990;33.226;-97.150;2024-01-16T06:59:07;-7.20;99.90
17740;DHT22;8990;33.226;-97.150;2024-01-16T07:01:36;-7.20;99.90
17740;DHT22;8990;33.226;-97.150;2024-01-16T07:04:05;-7.20;99.90
17740;DHT22;8990;33.226;-97.150;2024-01-16T07:06:34;-7.20;99.90
17740;DHT22;8990;33.226;-97.150;2024-01-16T07:09:03;-7.20;99.90
17740;DHT22;8990;33.226;-97.150;2024-01-16T07:11:33;-7.20;99.90
17740;DHT22;8990;33.226;-97.150;2024-01-16T07:14:03;-7.20;99.90
17740;DHT22;8990;33.226;-97.150;2024-01-16T07:16:33;-7.30;99.90
17740;DHT22;8990;33.226;-97.150;2024-01-16T07:19:02;-7.30;99.90
17740;DHT22;8990;33.226;-97.150;2024-01-16T07:21:31;-7.30;99.90
17740;DHT22;8990;33.226;-97.150;2024-01-16T07:24:00;-7.30;99.90
17740;DHT22;8990;33.226;-97.150;2024-01-16T07:26:29;-7.30;99.90
17740;DHT22;8990;33.226;-97.150;2024-01-16T07:28:58;-7.30;99.90
17740;DHT22;8990;33.226;-97.150;2024-01-16T07:31:27;-7.30;99.90
17740;DHT22;8990;33.226;-97.150;2024-01-16T07:33:57;-7.20;99.90
17740;DHT22;8990;33.226;-97.150;2024-01-16T07:36:26;-7.20;99.90
17740;DHT22;8990;33.226;-97.150;2024-01-16T07:38:55;-7.20;99.90
17740;DHT22;8990;33.226;-97.150;2024-01-16T07:41:24;-7.20;99.90
17740;DHT22;8990;33.226;-97.150;2024-01-16T07:43:53;-7.20;99.90
17740;DHT22;8990;33.226;-97.150;2024-01-16T07:46:22;-7.10;99.90
17740;DHT22;8990;33.226;-97.150;2024-01-16T07:48:52;-7.20;99.90
17740;DHT22;8990;33.226;-97.150;2024-01-16T07:51:23;-7.20;99.90
17740;DHT22;8990;33.226;-97.150;2024-01-16T07:53:59;-7.20;99.90
17740;DHT22;8990;33.226;-97.150;2024-01-16T07:56:33;-7.30;99.90
17740;DHT22;8990;33.226;-97.150;2024-01-16T07:59:02;-7.30;99.90
17740;DHT22;8990;33.226;-97.150;2024-01-16T08:01:31;-7.40;99.90
17740;DHT22;8990;33.226;-97.150;2024-01-16T08:04:01;-7.40;99.90
17740;DHT22;8990;33.226;-97.150;2024-01-16T08:06:32;-7.40;99.90
17740;DHT22;8990;33.226;-97.150;2024-01-16T08:09:01;-7.40;99.90
17740;DHT22;8990;33.226;-97.150;2024-01-16T08:11:30;-7.40;99.90
17740;DHT22;8990;33.226;-97.150;2024-01-16T08:14:01;-7.40;99.90
17740;DHT22;8990;33.226;-97.150;2024-01-16T08:16:30;-7.30;99.90
17740;DHT22;8990;33.226;-97.150;2024-01-16T08:18:59;-7.40;99.90
17740;DHT22;8990;33.226;-97.150;2024-01-16T08:21:28;-7.40;99.90
17740;DHT22;8990;33.226;-97.150;2024-01-16T08:23:58;-7.50;99.90
17740;DHT22;8990;33.226;-97.150;2024-01-16T08:26:27;-7.50;99.90
17740;DHT22;8990;33.226;-97.150;2024-01-16T08:28:57;-7.50;99.90
17740;DHT22;8990;33.226;-97.150;2024-01-16T08:31:26;-7.50;99.90
17740;DHT22;8990;33.226;-97.150;2024-01-16T08:33:56;-7.50;99.90
17740;DHT22;8990;33.226;-97.150;2024-01-16T08:36:25;-7.50;99.90
17740;DHT22;8990;33.226;-97.150;2024-01-16T08:38:54;-7.50;99.90
17740;DHT22;8990;33.226;-97.150;2024-01-16T08:41:24;-7.50;99.90
17740;DHT22;8990;33.226;-97.150;2024-01-16T08:43:53;-7.50;99.90
17740;DHT22;8990;33.226;-97.150;2024-01-16T08:46:21;-7.50;99.90
17740;DHT22;8990;33.226;-97.150;2024-01-16T08:48:50;-7.50;99.90
17740;DHT22;8990;33.226;-97.150;2024-01-16T08:51:19;-7.50;99.90
17740;DHT22;8990;33.226;-97.150;2024-01-16T08:53:48;-7.50;99.90
17740;DHT22;8990;33.226;-97.150;2024-01-16T08:56:17;-7.50;99.90
17740;DHT22;8990;33.226;-97.150;2024-01-16T08:58:49;-7.50;99.90
17740;DHT22;8990;33.226;-97.150;2024-01-16T09:01:17;-7.50;99.90
17740;DHT22;8990;33.226;-97.150;2024-01-16T09:03:47;-7.50;99.90
17740;DHT22;8990;33.226;-97.150;2024-01-16T09:06:16;-7.50;99.90
17740;DHT22;8990;33.226;-97.150;2024-01-16T09:08:45;-7.50;99.90
17740;DHT22;8990;33.226;-97.150;2024-01-16T09:11:14;-7.50;99.90
17740;DHT22;8990;33.226;-97.150;2024-01-16T09:13:43;-7.50;99.90
17740;DHT22;8990;33.226;-97.150;2024-01-16T09:16:14;-7.50;99.90
17740;DHT22;8990;33.226;-97.150;2024-01-16T09:18:43;-7.50;99.90
17740;DHT22;8990;33.226;-97.150;2024-01-16T09:21:14;-7.50;99.90
17740;DHT22;8990;33.226;-97.150;2024-01-16T09:23:43;-7.60;99.90
17740;DHT22;8990;33.226;-97.150;2024-01-16T09:26:12;-7.60;99.90
17740;DHT22;8990;33.226;-97.150;2024-01-16T09:28:41;-7.60;99.90
17740;DHT22;8990;33.226;-97.150;2024-01-16T09:31:14;-7.60;99.90
17740;DHT22;8990;33.226;-97.150;2024-01-16T09:33:43;-7.70;99.90
17740;DHT22;8990;33.226;-97.150;2024-01-16T09:36:12;-7.70;99.90
17740;DHT22;8990;33.226;-97.150;2024-01-16T09:38:41;-7.80;99.90
17740;DHT22;8990;33.226;-97.150;2024-01-16T09:41:11;-7.80;99.90
17740;DHT22;8990;33.226;-97.150;2024-01-16T09:43:40;-7.80;99.90
17740;DHT22;8990;33.226;-97.150;2024-01-16T09:46:09;-7.90;99.90
17740;DHT22;8990;33.226;-97.150;2024-01-16T09:48:42;-7.90;99.90
17740;DHT22;8990;33.226;-97.150;2024-01-16T09:51:13;-7.90;99.90
17740;DHT22;8990;33.226;-97.150;2024-01-16T09:53:42;-7.90;99.90
17740;DHT22;8990;33.226;-97.150;2024-01-16T09:56:14;-7.90;99.90
17740;DHT22;8990;33.226;-97.150;2024-01-16T09:58:44;-7.90;99.90
17740;DHT22;8990;33.226;-97.150;2024-01-16T10:01:17;-7.90;99.90
17740;DHT22;8990;33.226;-97.150;2024-01-16T10:03:47;-7.90;99.90
17740;DHT22;8990;33.226;-97.150;2024-01-16T10:06:18;-8.00;99.90
17740;DHT22;8990;33.226;-97.150;2024-01-16T10:08:49;-8.10;99.90
17740;DHT22;8990;33.226;-97.150;2024-01-16T10:11:18;-8.10;99.90
17740;DHT22;8990;33.226;-97.150;2024-01-16T10:13:48;-8.10;99.90
17740;DHT22;8990;33.226;-97.150;2024-01-16T10:16:17;-8.10;99.90
17740;DHT22;8990;33.226;-97.150;2024-01-16T10:18:48;-8.10;99.90
17740;DHT22;8990;33.226;-97.150;2024-01-16T10:21:21;-8.10;99.90
17740;DHT22;8990;33.226;-97.150;2024-01-16T10:23:50;-8.10;99.90
17740;DHT22;8990;33.226;-97.150;2024-01-16T10:26:21;-8.10;99.90
17740;DHT22;8990;33.226;-97.150;2024-01-16T10:28:50;-8.20;99.90
17740;DHT22;8990;33.226;-97.150;2024-01-16T10:31:20;-8.10;99.90
17740;DHT22;8990;33.226;-97.150;2024-01-16T10:33:50;-8.10;99.90
17740;DHT22;8990;33.226;-97.150;2024-01-16T10:36:19;-8.20;99.90
17740;DHT22;8990;33.226;-97.150;2024-01-16T10:38:48;-8.20;99.90
17740;DHT22;8990;33.226;-97.150;2024-01-16T10:41:24;-8.20;99.90
17740;DHT22;8990;33.226;-97.150;2024-01-16T10:44:03;-8.20;99.90
17740;DHT22;8990;33.226;-97.150;2024-01-16T10:46:34;-8.20;99.90
17740;DHT22;8990;33.226;-97.150;2024-01-16T10:49:05;-8.20;99.90
17740;DHT22;8990;33.226;-97.150;2024-01-16T10:51:34;-8.30;99.90
17740;DHT22;8990;33.226;-97.150;2024-01-16T10:54:04;-8.30;99.90
17740;DHT22;8990;33.226;-97.150;2024-01-16T10:56:36;-8.30;99.90
17740;DHT22;8990;33.226;-97.150;2024-01-16T10:59:16;-8.40;99.90
17740;DHT22;8990;33.226;-97.150;2024-01-16T11:01:49;-8.40;99.90
17740;DHT22;8990;33.226;-97.150;2024-01-16T11:04:22;-8.40;99.90
17740;DHT22;8990;33.226;-97.150;2024-01-16T11:06:52;-8.50;99.90
17740;DHT22;8990;33.226;-97.150;2024-01-16T11:09:22;-8.50;99.90
17740;DHT22;8990;33.226;-97.150;2024-01-16T11:11:53;-8.60;99.90
17740;DHT22;8990;33.226;-97.150;2024-01-16T11:14:23;-8.60;99.90
17740;DHT22;8990;33.226;-97.150;2024-01-16T11:16:54;-8.60;99.90
17740;DHT22;8990;33.226;-97.150;2024-01-16T11:19:26;-8.60;99.90
17740;DHT22;8990;33.226;-97.150;2024-01-16T11:21:56;-8.60;99.90
17740;DHT22;8990;33.226;-97.150;2024-01-16T11:24:26;-8.70;99.90
17740;DHT22;8990;33.226;-97.150;2024-01-16T11:26:55;-8.70;99.90
17740;DHT22;8990;33.226;-97.150;2024-01-16T11:29:36;-8.70;99.90
17740;DHT22;8990;33.226;-97.150;2024-01-16T11:32:05;-8.70;99.90
17740;DHT22;8990;33.226;-97.150;2024-01-16T11:34:54;-8.70;99.90
17740;DHT22;8990;33.226;-97.150;2024-01-16T11:37:30;-8.70;99.90
17740;DHT22;8990;33.226;-97.150;2024-01-16T11:40:21;-8.70;99.90
17740;DHT22;8990;33.226;-97.150;2024-01-16T11:42:51;-8.70;99.90
17740;DHT22;8990;33.226;-97.150;2024-01-16T11:45:49;-8.70;99.90
17740;DHT22;8990;33.226;-97.150;2024-01-16T11:48:21;-8.70;99.90
17740;DHT22;8990;33.226;-97.150;2024-01-16T11:50:52;-8.80;99.90
17740;DHT22;8990;33.226;-97.150;2024-01-16T11:53:34;-8.80;99.90
17740;DHT22;8990;33.226;-97.150;2024-01-16T11:56:31;-8.80;99.90
17740;DHT22;8990;33.226;-97.150;2024-01-16T11:59:40;-8.90;99.90
17740;DHT22;8990;33.226;-97.150;2024-01-16T12:02:17;-8.90;99.90
17740;DHT22;8990;33.226;-97.150;2024-01-16T12:04:53;-8.90;99.90
17740;DHT22;8990;33.226;-97.150;2024-01-16T12:07:25;-8.90;99.90
17740;DHT22;8990;33.226;-97.150;2024-01-16T12:09:59;-8.90;99.90
17740;DHT22;8990;33.226;-97.150;2024-01-16T12:12:28;-8.90;99.90
17740;DHT22;8990;33.226;-97.150;2024-01-16T12:14:57;-8.90;99.90
17740;DHT22;8990;33.226;-97.150;2024-01-16T12:17:26;-8.90;99.90
17740;DHT22;8990;33.226;-97.150;2024-01-16T12:19:55;-9.00;99.90
17740;DHT22;8990;33.226;-97.150;2024-01-16T12:22:26;-8.90;99.90
17740;DHT22;8990;33.226;-97.150;2024-01-16T12:24:56;-8.90;99.90
17740;DHT22;8990;33.226;-97.150;2024-01-16T12:27:31;-9.00;99.90
17740;DHT22;8990;33.226;-97.150;2024-01-16T12:30:07;-9.00;99.90
17740;DHT22;8990;33.226;-97.150;2024-01-16T12:32:36;-9.00;99.90
17740;DHT22;8990;33.226;-97.150;2024-01-16T12:35:05;-9.00;99.90
17740;DHT22;8990;33.226;-97.150;2024-01-16T12:37:37;-9.00;99.90
17740;DHT22;8990;33.226;-97.150;2024-01-16T12:40:07;-9.10;99.90
17740;DHT22;8990;33.226;-97.150;2024-01-16T12:42:36;-9.10;99.90
17740;DHT22;8990;33.226;-97.150;2024-01-16T12:45:08;-9.10;99.90
17740;DHT22;8990;33.226;-97.150;2024-01-16T12:47:37;-9.10;99.90
17740;DHT22;8990;33.226;-97.150;2024-01-16T12:50:07;-9.20;99.90
17740;DHT22;8990;33.226;-97.150;2024-01-16T12:52:37;-9.20;99.90
17740;DHT22;8990;33.226;-97.150;2024-01-16T12:55:08;-9.20;99.90
17740;DHT22;8990;33.226;-97.150;2024-01-16T12:57:37;-9.20;99.90
17740;DHT22;8990;33.226;-97.150;2024-01-16T13:00:22;-9.20;99.90
17740;DHT22;8990;33.226;-97.150;2024-01-16T13:02:52;-9.20;99.90
17740;DHT22;8990;33.226;-97.150;2024-01-16T13:05:24;-9.20;99.90
17740;DHT22;8990;33.226;-97.150;2024-01-16T13:08:02;-9.20;99.90
17740;DHT22;8990;33.226;-97.150;2024-01-16T13:10:31;-9.30;99.90
17740;DHT22;8990;33.226;-97.150;2024-01-16T13:13:13;-9.30;99.90
17740;DHT22;8990;33.226;-97.150;2024-01-16T13:15:44;-9.30;99.90
17740;DHT22;8990;33.226;-97.150;2024-01-16T13:18:20;-9.30;99.90
17740;DHT22;8990;33.226;-97.150;2024-01-16T13:20:50;-9.30;99.90
17740;DHT22;8990;33.226;-97.150;2024-01-16T13:23:21;-9.30;99.90
17740;DHT22;8990;33.226;-97.150;2024-01-16T13:25:50;-9.30;99.90
17740;DHT22;8990;33.226;-97.150;2024-01-16T13:28:19;-9.30;99.90
17740;DHT22;8990;33.226;-97.150;2024-01-16T13:30:49;-9.40;99.90
17740;DHT22;8990;33.226;-97.150;2024-01-16T13:33:18;-9.40;99.90
17740;DHT22;8990;33.226;-97.150;2024-01-16T13:35:47;-9.40;99.90
17740;DHT22;8990;33.226;-97.150;2024-01-16T13:38:16;-9.40;99.90
17740;DHT22;8990;33.226;-97.150;2024-01-16T13:40:47;-9.40;99.90
17740;DHT22;8990;33.226;-97.150;2024-01-16T13:43:17;-9.40;99.90
17740;DHT22;8990;33.226;-97.150;2024-01-16T13:45:46;-9.40;99.90
17740;DHT22;8990;33.226;-97.150;2024-01-16T13:48:16;-9.40;99.90
17740;DHT22;8990;33.226;-97.150;2024-01-16T13:50:45;-9.40;99.90
17740;DHT22;8990;33.226;-97.150;2024-01-16T13:53:15;-9.40;99.90
17740;DHT22;8990;33.226;-97.150;2024-01-16T13:55:44;-9.30;99.90
17740;DHT22;8990;33.226;-97.150;2024-01-16T13:58:14;-9.30;99.90
17740;DHT22;8990;33.226;-97.150;2024-01-16T14:00:43;-9.30;99.90
17740;DHT22;8990;33.226;-97.150;2024-01-16T14:03:12;-9.40;99.90
17740;DHT22;8990;33.226;-97.150;2024-01-16T14:05:41;-9.40;99.90
17740;DHT22;8990;33.226;-97.150;2024-01-16T14:08:10;-9.40;99.90
17740;DHT22;8990;33.226;-97.150;2024-01-16T14:10:40;-9.40;99.90
17740;DHT22;8990;33.226;-97.150;2024-01-16T14:13:09;-9.40;99.90
17740;DHT22;8990;33.226;-97.150;2024-01-16T14:15:39;-9.40;99.90
17740;DHT22;8990;33.226;-97.150;2024-01-16T14:18:08;-9.30;99.90
17740;DHT22;8990;33.226;-97.150;2024-01-16T14:20:38;-9.30;99.90
17740;DHT22;8990;33.226;-97.150;2024-01-16T14:23:07;-9.20;99.90
17740;DHT22;8990;33.226;-97.150;2024-01-16T14:25:36;-9.20;99.90
17740;DHT22;8990;33.226;-97.150;2024-01-16T14:28:05;-9.10;99.90
17740;DHT22;8990;33.226;-97.150;2024-01-16T14:30:35;-9.00;99.90
17740;DHT22;8990;33.226;-97.150;2024-01-16T14:33:07;-9.00;99.90
17740;DHT22;8990;33.226;-97.150;2024-01-16T14:35:36;-8.90;99.90
17740;DHT22;8990;33.226;-97.150;2024-01-16T14:38:05;-8.90;99.90
17740;DHT22;8990;33.226;-97.150;2024-01-16T14:40:34;-8.70;99.90
17740;DHT22;8990;33.226;-97.150;2024-01-16T14:43:03;-8.70;99.90
17740;DHT22;8990;33.226;-97.150;2024-01-16T14:45:32;-8.60;99.90
17740;DHT22;8990;33.226;-97.150;2024-01-16T14:48:02;-8.60;99.90
17740;DHT22;8990;33.226;-97.150;2024-01-16T14:50:35;-8.50;99.90
17740;DHT22;8990;33.226;-97.150;2024-01-16T14:53:04;-8.50;99.90
17740;DHT22;8990;33.226;-97.150;2024-01-16T14:55:33;-8.40;99.90
17740;DHT22;8990;33.226;-97.150;2024-01-16T14:58:04;-8.30;99.90
17740;DHT22;8990;33.226;-97.150;2024-01-16T15:00:35;-8.30;99.90
17740;DHT22;8990;33.226;-97.150;2024-01-16T15:03:04;-8.20;99.90
17740;DHT22;8990;33.226;-97.150;2024-01-16T15:05:35;-8.10;99.90
17740;DHT22;8990;33.226;-97.150;2024-01-16T15:08:04;-8.00;99.90
17740;DHT22;8990;33.226;-97.150;2024-01-16T15:10:33;-8.00;99.90
17740;DHT22;8990;33.226;-97.150;2024-01-16T15:13:03;-7.90;99.90
17740;DHT22;8990;33.226;-97.150;2024-01-16T15:15:32;-7.80;99.90
17740;DHT22;8990;33.226;-97.150;2024-01-16T15:18:00;-7.70;99.90
17740;DHT22;8990;33.226;-97.150;2024-01-16T15:20:29;-7.60;99.90
17740;DHT22;8990;33.226;-97.150;2024-01-16T15:23:00;-7.60;99.90
17740;DHT22;8990;33.226;-97.150;2024-01-16T15:25:30;-7.50;99.90
17740;DHT22;8990;33.226;-97.150;2024-01-16T15:28:00;-7.40;99.90
17740;DHT22;8990;33.226;-97.150;2024-01-16T15:30:30;-7.40;99.90
17740;DHT22;8990;33.226;-97.150;2024-01-16T15:32:59;-7.30;99.90